createdAt,value
2023-02-12T00:00:04.439Z,1016.56
2023-02-12T00:01:04.401Z,1016.56
2023-02-12T00:02:04.436Z,1016.55
2023-02-12T00:03:04.386Z,1016.54
2023-02-12T00:04:04.392Z,1016.53
2023-02-12T00:05:04.390Z,1016.52
2023-02-12T00:06:04.379Z,1016.53
2023-02-12T00:07:04.384Z,1016.53
2023-02-12T00:08:04.346Z,1016.55
2023-02-12T00:09:04.352Z,1016.56
2023-02-12T00:10:04.332Z,1016.57
2023-02-12T00:11:04.325Z,1016.58
2023-02-12T00:12:04.335Z,1016.58
2023-02-12T00:13:04.300Z,1016.58
2023-02-12T00:14:04.312Z,1016.57
2023-02-12T00:15:04.322Z,1016.56
2023-02-12T00:16:04.305Z,1016.54
2023-02-12T00:17:04.254Z,1016.54
2023-02-12T00:18:04.336Z,1016.54
2023-02-12T00:19:04.262Z,1016.54
2023-02-12T00:20:04.261Z,1016.55
2023-02-12T00:21:04.236Z,1016.55
2023-02-12T00:22:04.261Z,1016.56
2023-02-12T00:23:04.275Z,1016.56
2023-02-12T00:24:04.465Z,1016.57
2023-02-12T00:25:04.228Z,1016.57
2023-02-12T00:26:04.212Z,1016.56
2023-02-12T00:27:04.202Z,1016.55
2023-02-12T00:28:04.265Z,1016.54
2023-02-12T00:29:04.176Z,1016.52
2023-02-12T00:30:04.220Z,1016.52
2023-02-12T00:31:04.267Z,1016.52
2023-02-12T00:32:04.158Z,1016.51
2023-02-12T00:33:04.150Z,1016.51
2023-02-12T00:34:04.163Z,1016.51
2023-02-12T00:35:04.171Z,1016.52
2023-02-12T00:36:04.161Z,1016.52
2023-02-12T00:37:04.139Z,1016.51
2023-02-12T00:38:04.160Z,1016.50
2023-02-12T00:39:04.132Z,1016.48
2023-02-12T00:40:04.098Z,1016.47
2023-02-12T00:41:04.117Z,1016.46
2023-02-12T00:42:04.128Z,1016.45
2023-02-12T00:43:04.117Z,1016.45
2023-02-12T00:44:04.127Z,1016.46
2023-02-12T00:45:04.093Z,1016.47
2023-02-12T00:46:04.118Z,1016.48
2023-02-12T00:47:04.056Z,1016.49
2023-02-12T00:48:04.096Z,1016.49
2023-02-12T00:49:04.057Z,1016.49
2023-02-12T00:50:04.055Z,1016.50
2023-02-12T00:51:04.028Z,1016.51
2023-02-12T00:52:04.033Z,1016.52
2023-02-12T00:53:04.032Z,1016.52
2023-02-12T00:54:04.063Z,1016.52
2023-02-12T00:55:03.997Z,1016.51
2023-02-12T00:56:04.017Z,1016.51
2023-02-12T00:57:04.002Z,1016.51
2023-02-12T00:58:03.999Z,1016.50
2023-02-12T00:59:03.974Z,1016.50
2023-02-12T01:00:03.969Z,1016.49
2023-02-12T01:01:03.964Z,1016.48
2023-02-12T01:02:03.949Z,1016.47
2023-02-12T01:03:03.967Z,1016.45
2023-02-12T01:04:03.947Z,1016.44
2023-02-12T01:05:03.993Z,1016.44
2023-02-12T01:06:03.985Z,1016.45
2023-02-12T01:07:03.920Z,1016.46
2023-02-12T01:08:03.948Z,1016.46
2023-02-12T01:09:03.924Z,1016.46
2023-02-12T01:10:03.964Z,1016.46
2023-02-12T01:11:03.861Z,1016.47
2023-02-12T01:12:03.937Z,1016.47
2023-02-12T01:13:03.872Z,1016.45
2023-02-12T01:14:03.853Z,1016.44
2023-02-12T01:15:03.847Z,1016.44
2023-02-12T01:16:03.888Z,1016.44
2023-02-12T01:17:03.846Z,1016.44
2023-02-12T01:18:03.877Z,1016.45
2023-02-12T01:19:03.845Z,1016.47
2023-02-12T01:20:03.820Z,1016.48
2023-02-12T01:21:03.807Z,1016.49
2023-02-12T01:22:03.830Z,1016.50
2023-02-12T01:23:03.800Z,1016.51
2023-02-12T01:24:03.832Z,1016.50
2023-02-12T01:25:03.784Z,1016.50
2023-02-12T01:26:03.773Z,1016.50
2023-02-12T01:27:03.802Z,1016.48
2023-02-12T01:28:03.782Z,1016.48
2023-02-12T01:29:03.769Z,1016.48
2023-02-12T01:30:03.991Z,1016.48
2023-02-12T01:31:03.828Z,1016.49
2023-02-12T01:32:03.956Z,1016.50
2023-02-12T01:33:03.783Z,1016.51
2023-02-12T01:34:03.756Z,1016.50
2023-02-12T01:35:03.720Z,1016.49
2023-02-12T01:36:03.730Z,1016.48
2023-02-12T01:37:03.713Z,1016.46
2023-02-12T01:38:03.684Z,1016.43
2023-02-12T01:39:03.698Z,1016.42
2023-02-12T01:40:03.693Z,1016.42
2023-02-12T01:41:03.683Z,1016.43
2023-02-12T01:42:03.749Z,1016.44
2023-02-12T01:43:03.686Z,1016.46
2023-02-12T01:44:03.673Z,1016.49
2023-02-12T01:45:03.675Z,1016.52
2023-02-12T01:46:03.675Z,1016.53
2023-02-12T01:47:03.659Z,1016.55
2023-02-12T01:48:03.735Z,1016.55
2023-02-12T01:49:03.630Z,1016.55
2023-02-12T01:50:03.639Z,1016.53
2023-02-12T01:51:03.633Z,1016.51
2023-02-12T01:52:03.613Z,1016.49
2023-02-12T01:53:03.614Z,1016.48
2023-02-12T01:54:03.633Z,1016.46
2023-02-12T01:55:03.579Z,1016.44
2023-02-12T01:56:03.593Z,1016.43
2023-02-12T01:57:03.551Z,1016.43
2023-02-12T01:58:03.591Z,1016.42
2023-02-12T01:59:03.566Z,1016.42
2023-02-12T02:00:03.595Z,1016.41
2023-02-12T02:01:03.534Z,1016.40
2023-02-12T02:02:03.592Z,1016.39
2023-02-12T02:03:03.593Z,1016.37
2023-02-12T02:04:03.559Z,1016.36
2023-02-12T02:05:03.495Z,1016.34
2023-02-12T02:06:03.553Z,1016.32
2023-02-12T02:07:03.506Z,1016.31
2023-02-12T02:08:03.514Z,1016.29
2023-02-12T02:09:03.497Z,1016.27
2023-02-12T02:10:03.507Z,1016.26
2023-02-12T02:11:03.491Z,1016.26
2023-02-12T02:12:03.501Z,1016.25
2023-02-12T02:13:03.454Z,1016.24
2023-02-12T02:14:03.432Z,1016.22
2023-02-12T02:15:03.469Z,1016.21
2023-02-12T02:16:03.520Z,1016.19
2023-02-12T02:17:03.445Z,1016.18
2023-02-12T02:18:03.448Z,1016.18
2023-02-12T02:19:03.414Z,1016.17
2023-02-12T02:20:03.435Z,1016.15
2023-02-12T02:21:03.410Z,1016.15
2023-02-12T02:22:03.394Z,1016.14
2023-02-12T02:23:03.399Z,1016.14
2023-02-12T02:24:03.387Z,1016.13
2023-02-12T02:25:03.352Z,1016.12
2023-02-12T02:26:03.370Z,1016.12
2023-02-12T02:27:03.356Z,1016.11
2023-02-12T02:28:03.387Z,1016.11
2023-02-12T02:29:03.332Z,1016.11
2023-02-12T02:30:03.807Z,1016.12
2023-02-12T02:31:03.474Z,1016.13
2023-02-12T02:32:03.402Z,1016.14
2023-02-12T02:33:03.315Z,1016.15
2023-02-12T02:34:03.318Z,1016.16
2023-02-12T02:35:03.306Z,1016.16
2023-02-12T02:36:03.327Z,1016.16
2023-02-12T02:37:03.270Z,1016.16
2023-02-12T02:38:03.285Z,1016.15
2023-02-12T02:39:03.248Z,1016.15
2023-02-12T02:40:03.263Z,1016.14
2023-02-12T02:41:03.262Z,1016.14
2023-02-12T02:42:03.308Z,1016.13
2023-02-12T02:43:03.235Z,1016.12
2023-02-12T02:44:03.226Z,1016.12
2023-02-12T02:45:03.228Z,1016.11
2023-02-12T02:46:03.233Z,1016.11
2023-02-12T02:47:03.205Z,1016.11
2023-02-12T02:48:03.244Z,1016.12
2023-02-12T02:49:03.167Z,1016.12
2023-02-12T02:50:03.201Z,1016.13
2023-02-12T02:51:03.177Z,1016.14
2023-02-12T02:52:03.171Z,1016.15
2023-02-12T02:53:03.163Z,1016.15
2023-02-12T02:54:03.220Z,1016.14
2023-02-12T02:55:03.144Z,1016.13
2023-02-12T02:56:03.149Z,1016.13
2023-02-12T02:57:03.127Z,1016.14
2023-02-12T02:58:03.126Z,1016.15
2023-02-12T02:59:03.095Z,1016.16
2023-02-12T03:00:03.177Z,1016.18
2023-02-12T03:01:03.118Z,1016.18
2023-02-12T03:02:03.101Z,1016.18
2023-02-12T03:03:03.274Z,1016.18
2023-02-12T03:04:03.109Z,1016.18
2023-02-12T03:05:03.088Z,1016.17
2023-02-12T03:06:03.108Z,1016.16
2023-02-12T03:07:03.048Z,1016.15
2023-02-12T03:08:03.066Z,1016.15
2023-02-12T03:09:03.050Z,1016.15
2023-02-12T03:10:03.045Z,1016.16
2023-02-12T03:11:03.003Z,1016.15
2023-02-12T03:12:03.067Z,1016.15
2023-02-12T03:13:03.017Z,1016.14
2023-02-12T03:14:03.011Z,1016.14
2023-02-12T03:15:03.018Z,1016.13
2023-02-12T03:16:03.024Z,1016.13
2023-02-12T03:17:02.968Z,1016.14
2023-02-12T03:18:03.027Z,1016.14
2023-02-12T03:19:02.995Z,1016.15
2023-02-12T03:20:02.988Z,1016.16
2023-02-12T03:21:02.949Z,1016.16
2023-02-12T03:22:02.946Z,1016.16
2023-02-12T03:23:02.927Z,1016.16
2023-02-12T03:24:02.974Z,1016.17
2023-02-12T03:25:02.915Z,1016.17
2023-02-12T03:26:02.965Z,1016.18
2023-02-12T03:27:02.898Z,1016.19
2023-02-12T03:28:02.939Z,1016.20
2023-02-12T03:29:02.890Z,1016.21
2023-02-12T03:30:02.920Z,1016.22
2023-02-12T03:31:02.922Z,1016.23
2023-02-12T03:32:02.893Z,1016.23
2023-02-12T03:33:02.860Z,1016.23
2023-02-12T03:34:02.872Z,1016.24
2023-02-12T03:35:02.845Z,1016.24
2023-02-12T03:36:03.270Z,1016.24
2023-02-12T03:37:02.834Z,1016.24
2023-02-12T03:38:02.849Z,1016.25
2023-02-12T03:39:02.849Z,1016.26
2023-02-12T03:40:02.813Z,1016.27
2023-02-12T03:41:02.799Z,1016.28
2023-02-12T03:42:02.846Z,1016.30
2023-02-12T03:43:02.774Z,1016.31
2023-02-12T03:44:02.767Z,1016.33
2023-02-12T03:45:02.783Z,1016.33
2023-02-12T03:46:02.857Z,1016.33
2023-02-12T03:47:02.797Z,1016.33
2023-02-12T03:48:02.807Z,1016.31
2023-02-12T03:49:02.759Z,1016.30
2023-02-12T03:50:02.745Z,1016.29
2023-02-12T03:51:02.718Z,1016.27
2023-02-12T03:52:02.732Z,1016.27
2023-02-12T03:53:02.718Z,1016.28
2023-02-12T03:54:02.759Z,1016.28
2023-02-12T03:55:02.701Z,1016.30
2023-02-12T03:56:02.688Z,1016.31
2023-02-12T03:57:02.688Z,1016.32
2023-02-12T03:58:02.708Z,1016.33
2023-02-12T03:59:02.687Z,1016.34
2023-02-12T04:00:02.703Z,1016.36
2023-02-12T04:01:02.670Z,1016.37
2023-02-12T04:02:02.682Z,1016.37
2023-02-12T04:03:02.617Z,1016.37
2023-02-12T04:04:02.662Z,1016.38
2023-02-12T04:05:02.614Z,1016.39
2023-02-12T04:06:02.639Z,1016.39
2023-02-12T04:07:02.585Z,1016.39
2023-02-12T04:08:02.603Z,1016.40
2023-02-12T04:09:02.587Z,1016.40
2023-02-12T04:10:02.584Z,1016.42
2023-02-12T04:11:02.573Z,1016.42
2023-02-12T04:12:02.605Z,1016.43
2023-02-12T04:13:02.578Z,1016.45
2023-02-12T04:14:02.563Z,1016.46
2023-02-12T04:15:02.554Z,1016.47
2023-02-12T04:16:02.564Z,1016.49
2023-02-12T04:17:02.627Z,1016.51
2023-02-12T04:18:02.564Z,1016.51
2023-02-12T04:19:02.511Z,1016.52
2023-02-12T04:20:02.519Z,1016.52
2023-02-12T04:21:02.495Z,1016.53
2023-02-12T04:22:02.498Z,1016.54
2023-02-12T04:23:02.488Z,1016.56
2023-02-12T04:24:02.518Z,1016.57
2023-02-12T04:25:02.508Z,1016.59
2023-02-12T04:26:02.481Z,1016.59
2023-02-12T04:27:02.467Z,1016.60
2023-02-12T04:28:02.473Z,1016.62
2023-02-12T04:29:02.463Z,1016.63
2023-02-12T04:30:02.519Z,1016.65
2023-02-12T04:31:02.508Z,1016.66
2023-02-12T04:32:02.423Z,1016.67
2023-02-12T04:33:02.409Z,1016.67
2023-02-12T04:34:02.427Z,1016.68
2023-02-12T04:35:02.398Z,1016.69
2023-02-12T04:36:02.427Z,1016.71
2023-02-12T04:37:02.389Z,1016.73
2023-02-12T04:38:02.388Z,1016.75
2023-02-12T04:39:02.377Z,1016.76
2023-02-12T04:40:02.386Z,1016.76
2023-02-12T04:41:02.345Z,1016.76
2023-02-12T04:42:02.862Z,1016.77
2023-02-12T04:43:02.363Z,1016.77
2023-02-12T04:44:02.341Z,1016.77
2023-02-12T04:45:02.340Z,1016.77
2023-02-12T04:46:02.409Z,1016.77
2023-02-12T04:47:02.356Z,1016.77
2023-02-12T04:48:02.357Z,1016.77
2023-02-12T04:49:02.308Z,1016.77
2023-02-12T04:50:02.325Z,1016.78
2023-02-12T04:51:02.289Z,1016.78
2023-02-12T04:52:02.288Z,1016.79
2023-02-12T04:53:02.293Z,1016.80
2023-02-12T04:54:02.301Z,1016.81
2023-02-12T04:55:02.260Z,1016.82
2023-02-12T04:56:02.257Z,1016.81
2023-02-12T04:57:02.254Z,1016.82
2023-02-12T04:58:02.264Z,1016.83
2023-02-12T04:59:02.225Z,1016.83
2023-02-12T05:00:02.306Z,1016.83
2023-02-12T05:01:02.282Z,1016.84
2023-02-12T05:02:02.217Z,1016.84
2023-02-12T05:03:02.184Z,1016.84
2023-02-12T05:04:02.171Z,1016.85
2023-02-12T05:05:02.260Z,1016.85
2023-02-12T05:06:02.219Z,1016.85
2023-02-12T05:07:02.174Z,1016.84
2023-02-12T05:08:02.175Z,1016.84
2023-02-12T05:09:02.156Z,1016.83
2023-02-12T05:10:02.183Z,1016.82
2023-02-12T05:11:02.145Z,1016.82
2023-02-12T05:12:02.155Z,1016.82
2023-02-12T05:13:02.124Z,1016.82
2023-02-12T05:14:02.126Z,1016.82
2023-02-12T05:15:02.145Z,1016.82
2023-02-12T05:16:02.124Z,1016.82
2023-02-12T05:17:02.107Z,1016.82
2023-02-12T05:18:02.153Z,1016.82
2023-02-12T05:19:02.091Z,1016.82
2023-02-12T05:20:02.105Z,1016.82
2023-02-12T05:21:02.078Z,1016.81
2023-02-12T05:22:02.066Z,1016.82
2023-02-12T05:23:02.070Z,1016.82
2023-02-12T05:24:02.129Z,1016.83
2023-02-12T05:25:02.047Z,1016.83
2023-02-12T05:26:02.036Z,1016.85
2023-02-12T05:27:02.028Z,1016.86
2023-02-12T05:28:02.038Z,1016.88
2023-02-12T05:29:02.032Z,1016.89
2023-02-12T05:30:02.127Z,1016.90
2023-02-12T05:31:02.175Z,1016.91
2023-02-12T05:32:02.072Z,1016.91
2023-02-12T05:33:01.981Z,1016.92
2023-02-12T05:34:01.994Z,1016.92
2023-02-12T05:35:01.969Z,1016.91
2023-02-12T05:36:02.016Z,1016.91
2023-02-12T05:37:01.958Z,1016.90
2023-02-12T05:38:01.957Z,1016.90
2023-02-12T05:39:01.945Z,1016.89
2023-02-12T05:40:01.928Z,1016.89
2023-02-12T05:41:37.070Z,1016.89
2023-02-12T05:42:03.335Z,1016.89
2023-02-12T05:43:01.928Z,1016.90
2023-02-12T05:44:01.898Z,1016.90
2023-02-12T05:45:01.905Z,1016.91
2023-02-12T05:46:01.964Z,1016.91
2023-02-12T05:47:01.878Z,1016.91
2023-02-12T05:48:01.946Z,1016.90
2023-02-12T05:49:01.863Z,1016.89
2023-02-12T05:50:01.867Z,1016.89
2023-02-12T05:51:01.849Z,1016.88
2023-02-12T05:52:01.864Z,1016.88
2023-02-12T05:53:01.852Z,1016.88
2023-02-12T05:54:01.887Z,1016.89
2023-02-12T05:55:01.818Z,1016.89
2023-02-12T05:56:01.836Z,1016.90
2023-02-12T05:57:01.810Z,1016.90
2023-02-12T05:58:01.811Z,1016.90
2023-02-12T05:59:01.793Z,1016.90
2023-02-12T06:00:01.838Z,1016.89
2023-02-12T06:01:01.786Z,1016.88
2023-02-12T06:02:01.797Z,1016.88
2023-02-12T06:03:01.765Z,1016.88
2023-02-12T06:04:01.856Z,1016.88
2023-02-12T06:05:01.744Z,1016.89
2023-02-12T06:06:01.795Z,1016.89
2023-02-12T06:07:01.760Z,1016.90
2023-02-12T06:08:01.726Z,1016.91
2023-02-12T06:09:01.730Z,1016.92
2023-02-12T06:10:01.730Z,1016.93
2023-02-12T06:11:01.725Z,1016.94
2023-02-12T06:12:01.737Z,1016.95
2023-02-12T06:13:01.719Z,1016.95
2023-02-12T06:14:01.686Z,1016.95
2023-02-12T06:15:01.681Z,1016.96
2023-02-12T06:16:01.728Z,1016.98
2023-02-12T06:17:01.660Z,1016.99
2023-02-12T06:18:01.689Z,1017.00
2023-02-12T06:19:01.634Z,1017.01
2023-02-12T06:20:01.671Z,1017.02
2023-02-12T06:21:01.653Z,1017.03
2023-02-12T06:22:01.634Z,1017.03
2023-02-12T06:23:01.633Z,1017.04
2023-02-12T06:24:01.690Z,1017.04
2023-02-12T06:25:01.606Z,1017.04
2023-02-12T06:26:01.645Z,1017.05
2023-02-12T06:27:01.583Z,1017.06
2023-02-12T06:28:01.624Z,1017.06
2023-02-12T06:29:01.598Z,1017.06
2023-02-12T06:30:01.626Z,1017.07
2023-02-12T06:31:01.709Z,1017.07
2023-02-12T06:32:01.765Z,1017.07
2023-02-12T06:33:01.568Z,1017.08
2023-02-12T06:34:01.567Z,1017.09
2023-02-12T06:35:01.525Z,1017.11
2023-02-12T06:36:01.605Z,1017.13
2023-02-12T06:37:01.518Z,1017.15
2023-02-12T06:38:01.524Z,1017.17
2023-02-12T06:39:01.493Z,1017.19
2023-02-12T06:40:01.499Z,1017.20
2023-02-12T06:41:01.521Z,1017.20
2023-02-12T06:42:01.509Z,1017.20
2023-02-12T06:43:01.490Z,1017.19
2023-02-12T06:44:01.485Z,1017.19
2023-02-12T06:45:01.479Z,1017.19
2023-02-12T06:46:01.450Z,1017.20
2023-02-12T06:47:01.498Z,1017.22
2023-02-12T06:48:01.496Z,1017.23
2023-02-12T06:49:01.446Z,1017.26
2023-02-12T06:50:01.442Z,1017.28
2023-02-12T06:51:01.406Z,1017.31
2023-02-12T06:52:03.328Z,1017.34
2023-02-12T06:53:01.417Z,1017.36
2023-02-12T06:54:01.451Z,1017.38
2023-02-12T06:55:01.466Z,1017.38
2023-02-12T06:56:01.393Z,1017.39
2023-02-12T06:57:01.372Z,1017.40
2023-02-12T06:58:01.380Z,1017.40
2023-02-12T06:59:01.386Z,1017.40
2023-02-12T07:00:01.571Z,1017.41
2023-02-12T07:01:01.471Z,1017.42
2023-02-12T07:02:01.360Z,1017.42
2023-02-12T07:03:01.406Z,1017.43
2023-02-12T07:04:01.395Z,1017.44
2023-02-12T07:05:01.303Z,1017.45
2023-02-12T07:06:01.360Z,1017.45
2023-02-12T07:07:01.324Z,1017.46
2023-02-12T07:08:01.309Z,1017.47
2023-02-12T07:09:01.307Z,1017.49
2023-02-12T07:10:01.362Z,1017.50
2023-02-12T07:11:01.286Z,1017.51
2023-02-12T07:12:01.335Z,1017.53
2023-02-12T07:13:01.278Z,1017.53
2023-02-12T07:14:01.402Z,1017.54
2023-02-12T07:15:01.278Z,1017.56
2023-02-12T07:16:01.284Z,1017.56
2023-02-12T07:17:01.245Z,1017.57
2023-02-12T07:18:01.300Z,1017.57
2023-02-12T07:19:01.220Z,1017.57
2023-02-12T07:20:01.210Z,1017.58
2023-02-12T07:21:01.211Z,1017.58
2023-02-12T07:22:01.188Z,1017.58
2023-02-12T07:23:01.195Z,1017.59
2023-02-12T07:24:01.219Z,1017.59
2023-02-12T07:25:01.189Z,1017.60
2023-02-12T07:26:01.158Z,1017.62
2023-02-12T07:27:01.144Z,1017.63
2023-02-12T07:28:01.247Z,1017.64
2023-02-12T07:29:01.210Z,1017.64
2023-02-12T07:30:01.195Z,1017.64
2023-02-12T07:31:01.185Z,1017.65
2023-02-12T07:32:01.181Z,1017.65
2023-02-12T07:33:01.129Z,1017.66
2023-02-12T07:34:01.124Z,1017.65
2023-02-12T07:35:01.125Z,1017.66
2023-02-12T07:36:01.136Z,1017.67
2023-02-12T07:37:01.135Z,1017.67
2023-02-12T07:38:01.081Z,1017.68
2023-02-12T07:39:01.101Z,1017.69
2023-02-12T07:40:01.141Z,1017.70
2023-02-12T07:41:01.069Z,1017.70
2023-02-12T07:42:01.130Z,1017.70
2023-02-12T07:43:01.127Z,1017.71
2023-02-12T07:44:01.066Z,1017.70
2023-02-12T07:45:01.029Z,1017.71
2023-02-12T07:46:01.123Z,1017.72
2023-02-12T07:47:01.033Z,1017.72
2023-02-12T07:48:01.089Z,1017.72
2023-02-12T07:49:01.067Z,1017.72
2023-02-12T07:50:01.013Z,1017.72
2023-02-12T07:51:00.990Z,1017.71
2023-02-12T07:52:00.974Z,1017.71
2023-02-12T07:53:00.965Z,1017.71
2023-02-12T07:54:01.219Z,1017.72
2023-02-12T07:55:00.977Z,1017.73
2023-02-12T07:56:00.942Z,1017.74
2023-02-12T07:57:00.947Z,1017.76
2023-02-12T07:58:00.950Z,1017.77
2023-02-12T07:59:00.938Z,1017.78
2023-02-12T08:00:00.950Z,1017.79
2023-02-12T08:01:00.909Z,1017.80
2023-02-12T08:02:01.000Z,1017.82
2023-02-12T08:03:00.949Z,1017.83
2023-02-12T08:04:00.951Z,1017.84
2023-02-12T08:05:00.901Z,1017.86
2023-02-12T08:06:00.930Z,1017.86
2023-02-12T08:07:00.875Z,1017.86
2023-02-12T08:08:00.871Z,1017.86
2023-02-12T08:09:00.879Z,1017.86
2023-02-12T08:10:00.854Z,1017.86
2023-02-12T08:11:00.856Z,1017.86
2023-02-12T08:12:00.879Z,1017.86
2023-02-12T08:13:00.842Z,1017.86
2023-02-12T08:14:00.821Z,1017.87
2023-02-12T08:15:00.835Z,1017.87
2023-02-12T08:16:00.863Z,1017.87
2023-02-12T08:17:00.799Z,1017.87
2023-02-12T08:18:00.831Z,1017.88
2023-02-12T08:19:15.492Z,1017.88
2023-02-12T08:20:01.812Z,1017.88
2023-02-12T08:21:00.793Z,1017.90
2023-02-12T08:22:00.767Z,1017.91
2023-02-12T08:23:00.761Z,1017.92
2023-02-12T08:24:00.781Z,1017.94
2023-02-12T08:25:00.742Z,1017.96
2023-02-12T08:26:00.744Z,1017.96
2023-02-12T08:27:00.738Z,1017.97
2023-02-12T08:28:00.766Z,1017.98
2023-02-12T08:29:00.743Z,1017.99
2023-02-12T08:30:00.757Z,1017.99
2023-02-12T08:31:00.758Z,1018.00
2023-02-12T08:32:00.846Z,1018.01
2023-02-12T08:33:00.710Z,1018.01
2023-02-12T08:34:00.668Z,1018.01
2023-02-12T08:35:00.660Z,1018.01
2023-02-12T08:36:01.047Z,1018.01
2023-02-12T08:37:00.673Z,1018.01
2023-02-12T08:38:00.662Z,1018.01
2023-02-12T08:39:00.649Z,1018.01
2023-02-12T08:40:00.639Z,1018.00
2023-02-12T08:41:00.689Z,1018.01
2023-02-12T08:42:00.674Z,1018.00
2023-02-12T08:43:00.638Z,1018.01
2023-02-12T08:44:00.620Z,1018.01
2023-02-12T08:45:00.613Z,1018.02
2023-02-12T08:46:00.666Z,1018.03
2023-02-12T08:47:00.604Z,1018.03
2023-02-12T08:48:00.644Z,1018.04
2023-02-12T08:49:00.565Z,1018.04
2023-02-12T08:50:00.567Z,1018.04
2023-02-12T08:51:00.575Z,1018.04
2023-02-12T08:52:00.533Z,1018.04
2023-02-12T08:53:00.526Z,1018.05
2023-02-12T08:54:00.578Z,1018.05
2023-02-12T08:55:00.531Z,1018.04
2023-02-12T08:56:00.520Z,1018.04
2023-02-12T08:57:00.543Z,1018.04
2023-02-12T08:58:00.500Z,1018.04
2023-02-12T08:59:00.491Z,1018.04
2023-02-12T09:00:00.898Z,1018.03
2023-02-12T09:01:00.496Z,1018.03
2023-02-12T09:02:00.510Z,1018.03
2023-02-12T09:03:00.457Z,1018.03
2023-02-12T09:04:00.478Z,1018.02
2023-02-12T09:05:00.473Z,1018.02
2023-02-12T09:06:00.464Z,1018.01
2023-02-12T09:07:01.938Z,1018.01
2023-02-12T09:08:00.420Z,1018.01
2023-02-12T09:09:00.430Z,1018.01
2023-02-12T09:10:00.392Z,1018.01
2023-02-12T09:11:00.382Z,1018.00
2023-02-12T09:12:00.428Z,1018.00
2023-02-12T09:13:00.398Z,1017.99
2023-02-12T09:14:00.380Z,1017.99
2023-02-12T09:15:00.366Z,1017.99
2023-02-12T09:16:00.395Z,1017.99
2023-02-12T09:22:01.366Z,1017.97
2023-02-12T09:23:00.303Z,1017.98
2023-02-12T09:24:00.281Z,1017.97
2023-02-12T09:25:00.288Z,1017.98
2023-02-12T09:26:00.308Z,1017.99
2023-02-12T09:27:00.273Z,1018.01
2023-02-12T09:28:00.327Z,1018.01
2023-02-12T09:29:00.285Z,1018.01
2023-02-12T09:30:00.249Z,1018.02
2023-02-12T09:31:00.336Z,1018.02
2023-02-12T09:32:00.326Z,1018.03
2023-02-12T09:33:00.233Z,1018.03
2023-02-12T09:34:00.242Z,1018.03
2023-02-12T09:35:00.207Z,1018.03
2023-02-12T09:36:00.215Z,1018.03
2023-02-12T09:37:00.202Z,1018.04
2023-02-12T09:38:00.194Z,1018.04
2023-02-12T09:39:00.195Z,1018.05
2023-02-12T09:40:00.222Z,1018.05
2023-02-12T09:41:00.175Z,1018.05
2023-02-12T09:42:00.178Z,1018.06
2023-02-12T09:43:00.168Z,1018.07
2023-02-12T09:44:00.156Z,1018.08
2023-02-12T09:45:00.156Z,1018.09
2023-02-12T09:46:00.526Z,1018.11
2023-02-12T09:47:00.155Z,1018.10
2023-02-12T09:48:00.120Z,1018.11
2023-02-12T09:49:00.108Z,1018.10
2023-02-12T09:50:00.138Z,1018.10
2023-02-12T09:51:00.121Z,1018.10
2023-02-12T09:52:00.122Z,1018.11
2023-02-12T09:53:00.086Z,1018.11
2023-02-12T09:54:00.113Z,1018.11
2023-02-12T09:55:00.117Z,1018.11
2023-02-12T09:56:00.049Z,1018.10
2023-02-12T09:57:00.099Z,1018.10
2023-02-12T09:58:00.117Z,1018.09
2023-02-12T09:59:00.054Z,1018.09
2023-02-12T10:00:00.036Z,1018.09
2023-02-12T10:01:00.023Z,1018.09
2023-02-12T10:02:00.024Z,1018.10
2023-02-12T10:03:00.021Z,1018.11
2023-02-12T10:04:00.265Z,1018.11
2023-02-12T10:05:02.005Z,1018.10
2023-02-12T10:06:00.025Z,1018.09
2023-02-12T10:06:59.964Z,1018.09
2023-02-12T10:07:59.999Z,1018.07
2023-02-12T10:08:59.987Z,1018.07
2023-02-12T10:09:59.992Z,1018.07
2023-02-12T10:10:59.981Z,1018.07
2023-02-12T10:11:59.953Z,1018.08
2023-02-12T10:12:59.948Z,1018.09
2023-02-12T10:13:59.929Z,1018.10
2023-02-12T10:14:59.947Z,1018.11
2023-02-12T10:16:00.124Z,1018.08
2023-02-12T10:16:59.904Z,1018.07
2023-02-12T10:17:59.890Z,1018.04
2023-02-12T10:18:59.926Z,1018.02
2023-02-12T10:19:59.877Z,1018.02
2023-02-12T10:21:00.013Z,1018.01
2023-02-12T10:21:59.906Z,1017.99
2023-02-12T10:22:59.858Z,1017.99
2023-02-12T10:23:59.856Z,1017.98
2023-02-12T10:24:59.857Z,1017.99
2023-02-12T10:26:00.357Z,1017.98
2023-02-12T10:26:59.829Z,1017.98
2023-02-12T10:27:59.904Z,1017.97
2023-02-12T10:28:59.864Z,1017.95
2023-02-12T10:29:59.794Z,1017.94
2023-02-12T10:30:59.901Z,1017.93
2023-02-12T10:31:59.793Z,1017.93
2023-02-12T10:32:59.794Z,1017.93
2023-02-12T10:33:59.815Z,1017.93
2023-02-12T10:34:59.794Z,1017.94
2023-02-12T10:35:59.763Z,1017.93
2023-02-12T10:36:59.782Z,1017.92
2023-02-12T10:37:59.745Z,1017.90
2023-02-12T10:38:59.726Z,1017.87
2023-02-12T10:39:59.773Z,1017.85
2023-02-12T10:40:59.726Z,1017.84
2023-02-12T10:41:59.738Z,1017.82
2023-02-12T10:42:59.732Z,1017.82
2023-02-12T10:43:59.694Z,1017.82
2023-02-12T10:44:59.736Z,1017.82
2023-02-12T10:45:59.726Z,1017.81
2023-02-12T10:46:59.692Z,1017.81
2023-02-12T10:47:59.685Z,1017.80
2023-02-12T10:48:59.669Z,1017.79
2023-02-12T10:49:59.653Z,1017.78
2023-02-12T10:50:59.637Z,1017.77
2023-02-12T10:51:59.681Z,1017.75
2023-02-12T10:52:59.637Z,1017.74
2023-02-12T10:53:59.640Z,1017.73
2023-02-12T10:54:59.621Z,1017.72
2023-02-12T10:55:59.611Z,1017.72
2023-02-12T10:56:59.608Z,1017.72
2023-02-12T10:57:59.664Z,1017.72
2023-02-12T10:58:59.615Z,1017.71
2023-02-12T10:59:59.602Z,1017.71
2023-02-12T11:00:59.603Z,1017.70
2023-02-12T11:01:59.577Z,1017.70
2023-02-12T11:02:59.565Z,1017.69
2023-02-12T11:03:59.585Z,1017.69
2023-02-12T11:04:59.600Z,1017.68
2023-02-12T11:05:59.553Z,1017.68
2023-02-12T11:06:59.525Z,1017.67
2023-02-12T11:07:59.533Z,1017.66
2023-02-12T11:08:59.524Z,1017.66
2023-02-12T11:09:59.928Z,1017.65
2023-02-12T11:10:59.540Z,1017.65
2023-02-12T11:11:59.494Z,1017.65
2023-02-12T11:12:59.508Z,1017.65
2023-02-12T11:13:59.489Z,1017.65
2023-02-12T11:14:59.480Z,1017.64
2023-02-12T11:15:59.829Z,1017.62
2023-02-12T11:16:59.472Z,1017.62
2023-02-12T11:17:59.456Z,1017.60
2023-02-12T11:18:59.448Z,1017.60
2023-02-12T11:19:59.472Z,1017.59
2023-02-12T11:20:59.422Z,1017.59
2023-02-12T11:21:59.465Z,1017.59
2023-02-12T11:22:59.429Z,1017.59
2023-02-12T11:23:59.412Z,1017.58
2023-02-12T11:24:59.399Z,1017.57
2023-02-12T11:25:59.372Z,1017.56
2023-02-12T11:26:59.388Z,1017.55
2023-02-12T11:27:59.645Z,1017.53
2023-02-12T11:28:59.524Z,1017.51
2023-02-12T11:29:59.389Z,1017.50
2023-02-12T11:30:59.473Z,1017.49
2023-02-12T11:31:59.368Z,1017.48
2023-02-12T11:32:59.354Z,1017.48
2023-02-12T11:33:59.366Z,1017.48
2023-02-12T11:34:59.335Z,1017.48
2023-02-12T11:35:59.315Z,1017.47
2023-02-12T11:36:59.314Z,1017.47
2023-02-12T11:37:59.313Z,1017.47
2023-02-12T11:38:59.293Z,1017.47
2023-02-12T11:39:59.329Z,1017.45
2023-02-12T11:40:59.733Z,1017.45
2023-02-12T11:41:59.283Z,1017.45
2023-02-12T11:42:59.264Z,1017.45
2023-02-12T11:43:59.260Z,1017.45
2023-02-12T11:44:59.259Z,1017.46
2023-02-12T11:45:59.308Z,1017.46
2023-02-12T11:46:59.252Z,1017.46
2023-02-12T11:47:59.266Z,1017.47
2023-02-12T11:48:59.268Z,1017.47
2023-02-12T11:49:59.218Z,1017.47
2023-02-12T11:50:59.339Z,1017.47
2023-02-12T11:51:59.268Z,1017.46
2023-02-12T11:52:59.176Z,1017.45
2023-02-12T11:53:59.193Z,1017.45
2023-02-12T11:54:59.200Z,1017.46
2023-02-12T11:55:59.168Z,1017.46
2023-02-12T11:56:59.163Z,1017.47
2023-02-12T11:57:59.191Z,1017.48
2023-02-12T11:58:59.231Z,1017.49
2023-02-12T11:59:59.187Z,1017.49
2023-02-12T12:00:59.183Z,1017.49
2023-02-12T12:01:59.174Z,1017.48
2023-02-12T12:02:59.161Z,1017.47
2023-02-12T12:03:59.165Z,1017.47
2023-02-12T12:04:59.117Z,1017.47
2023-02-12T12:05:59.096Z,1017.48
2023-02-12T12:06:59.125Z,1017.50
2023-02-12T12:07:59.149Z,1017.50
2023-02-12T12:08:59.062Z,1017.51
2023-02-12T12:09:59.110Z,1017.52